• Join FlightAware (Why Join?)
  • Login
  • US Flag 
02:47PM EDT


 

Airport Tracker/Info


-or-


 

Live Flight TrackerFlight Track Log ✈ VH-CZS ✈ 06-Dec-2013 ✈ YSCB / CBR - YCTM / CMD

Flight Track Log - Related Links

Times and Time Zones

All times are in EST time to prevent confusion due to time zone crossing. See the VH-CZS flight status page for this flight to view local times or setup timezone preferences in your user account.

Time Position Orientation Groundspeed Altitude Reporting Facility
EST Latitude Longitude Course Direction KTS MPH feet Rate Location/Type
01:51AM -35.2918 149.1732 307° West 68 78 2,500  Level Aus ATC (RADAR)
01:52AM -35.2856 149.1630 307° West 72 83 3,000 960 Climbing Aus ATC (RADAR)
01:53AM -35.2763 149.1469 305° West 64 74 3,800 840 Climbing Aus ATC (RADAR)
01:53AM -35.2704 149.1393 313° West 70 81 4,100 540 Climbing Aus ATC (RADAR)
01:54AM -35.2595 149.1297 324° Northwest 75 86 4,400 300 Climbing Aus ATC (RADAR)
01:55AM -35.2360 149.1195 340° North 93 107 4,600 120 Climbing Aus ATC (RADAR)
01:55AM -35.2297 149.1170 342° North 94 108 4,600  Level Aus ATC (RADAR)
01:56AM -35.2171 149.1138 348° North 94 108 4,600  Level Aus ATC (RADAR)
01:57AM -35.1857 149.1027 344° North 97 112 4,700 -60 Climbing Aus ATC (RADAR)
01:57AM -35.1728 149.1000 350° North 97 112 4,500 -240 Descending Aus ATC (RADAR)
01:58AM -35.1520 149.0940 347° North 89 102 4,400 -120 Descending Aus ATC (RADAR)
01:58AM -35.1466 149.0907 334° Northwest 87 100 4,400 -240 Level Aus ATC (RADAR)
01:59AM -35.1430 149.0881 329° Northwest 87 100 4,300 180 Descending Aus ATC (RADAR)
02:00AM -35.1107 149.0649 330° Northwest 85 98 4,800 180 Climbing Aus ATC (RADAR)
02:00AM -35.1059 149.0613 328° Northwest 83 96 4,700 -420 Descending Aus ATC (RADAR)
02:04AM -35.0377 149.0584 358° North 4,500 -60 Descending Aus ATC (Calculated)
02:05AM -34.9866 149.0563 293° West 4,500  Level Aus ATC (Calculated)
02:07AM -34.9721 149.0144 293° West  Level Estimated
02:08AM -34.9641 148.9913 293° West  Level Estimated
02:09AM -34.9560 148.9682 293° West  Level Estimated
02:10AM -34.9480 148.9451 293° West  Level Estimated
02:10AM -34.9418 148.9283 290° West  Level Aus ATC (Calculated)
02:11AM -34.9399 148.9221 293° West  Level Estimated
02:12AM -34.9300 148.8944 293° West  Level Estimated
02:13AM -34.9220 148.8714 293° West  Level Estimated
02:14AM -34.9140 148.8483 293° West  Level Estimated
02:15AM -34.9059 148.8253 293° West  Level Estimated
02:16AM -34.8979 148.8022 293° West  Level Estimated
02:17AM -34.8898 148.7792 293° West  Level Estimated
02:18AM -34.8817 148.7561 293° West  Level Estimated
02:19AM -34.8737 148.7331 293° West  Level Estimated
02:20AM -34.8656 148.7101 293° West  Level Estimated
02:21AM -34.8575 148.6871 293° West  Level Estimated
02:22AM -34.8494 148.6640 293° West  Level Estimated
02:23AM -34.8414 148.6410 293° West  Level Estimated
02:24AM -34.8333 148.6180 293° West  Level Estimated
02:25AM -34.8252 148.5950 293° West  Level Estimated
02:26AM -34.8171 148.5720 293° West  Level Estimated
02:27AM -34.8090 148.5490 293° West  Level Estimated
02:28AM -34.8009 148.5260 293° West  Level Estimated
02:29AM -34.7928 148.5030 293° West  Level Estimated
02:30AM -34.7847 148.4801 293° West  Level Estimated
02:31AM -34.7765 148.4571 293° West  Level Estimated
02:32AM -34.7684 148.4341 293° West  Level Estimated
02:33AM -34.7603 148.4111 293° West  Level Estimated
02:34AM -34.7522 148.3882 293° West  Level Estimated
02:35AM -34.7440 148.3652 293° West  Level Estimated
02:36AM -34.7359 148.3422 293° West  Level Estimated
02:37AM -34.7277 148.3193 293° West  Level Estimated
02:38AM -34.7196 148.2963 293° West  Level Estimated
02:39AM -34.7114 148.2734 293° West  Level Estimated
02:40AM -34.7033 148.2505 293° West  Level Estimated
02:41AM -34.6951 148.2275 293° West  Level Estimated
02:42AM -34.6870 148.2046 293° West  Level Estimated
02:43AM -34.6788 148.1817 293° West  Level Estimated
02:44AM -34.6706 148.1588 293° West  Level Estimated
02:45AM -34.6624 148.1358 293° West  Level Estimated
02:46AM -34.6543 148.1129 293° West  Level Estimated
02:47AM -34.6461 148.0900 293° West  Level Estimated
02:48AM -34.6379 148.0671 293° West  Level Estimated
02:49AM -34.6297 148.0442 293° West  Level Estimated
02:50AM -34.6239 148.0281 294° West  Level Estimated
02:51AM -34.6239 148.0281 287° West  Level Estimated
02:52AM -34.6239 148.0281 287° West  Level Estimated
02:53AM -34.6239 148.0281 287° West  Level Estimated
02:54AM -34.6239 148.0281 287° West  Level Estimated
02:55AM -34.6239 148.0281 287° West  Level Estimated
02:56AM -34.6239 148.0281 287° West  Level Estimated
02:57AM -34.6239 148.0281 287° West  Level Estimated
02:58AM -34.6239 148.0281 287° West  Level Estimated
02:59AM -34.6239 148.0281 287° West  Level Estimated
03:00AM -34.6239 148.0281 287° West  Level Estimated
03:01AM -34.6239 148.0281 287° West  Level Estimated
03:02AM -34.6239 148.0281 287° West  Level Estimated
03:03AM -34.6239 148.0281 287° West  Level Estimated